Time;durP1;ratioP1;P1;durP2;ratioP2;P2;SDS_P1;SDS_P2;PMS_P1;PMS_P2;Temp;Humidity;BMP_temperature;BMP_pressure;BME280_temperature;BME280_humidity;BME280_pressure;Samples;Min_cycle;Max_cycle;Signal;HPM_P1;HPM_P2
2021/04/22 00:02:25;;;;;;;7.40;5.12;;;;;;;17.14;56.26;99595.36;1839460;77;21150;-68
2021/04/22 00:04:53;;;;;;;6.15;4.85;;;;;;;17.15;56.24;99593.77;1830161;77;21214;-67
2021/04/22 00:07:24;;;;;;;6.10;5.25;;;;;;;17.14;56.24;99589.98;1850497;77;21631;-67
2021/04/22 00:09:51;;;;;;;6.15;5.25;;;;;;;17.13;56.24;99597.72;1842026;77;21196;-67
2021/04/22 00:12:19;;;;;;;6.40;5.08;;;;;;;17.12;56.23;99590.72;1850610;77;21119;-66
2021/04/22 00:14:46;;;;;;;5.78;5.17;;;;;;;17.12;56.21;99595.56;1836752;77;21102;-67
2021/04/22 00:17:15;;;;;;;7.03;5.80;;;;;;;17.11;56.22;99599.27;1845264;77;21607;-67
2021/04/22 00:19:43;;;;;;;6.53;5.20;;;;;;;17.10;56.20;99590.93;1843738;77;21121;-68
2021/04/22 00:22:10;;;;;;;6.25;4.92;;;;;;;17.10;56.19;99598.45;1852321;77;21194;-67
2021/04/22 00:24:38;;;;;;;6.78;5.72;;;;;;;17.09;56.18;99606.22;1778232;80;21212;-66
2021/04/22 00:27:06;;;;;;;5.90;5.25;;;;;;;17.08;56.17;99600.53;1808624;79;21190;-66
2021/04/22 00:29:33;;;;;;;5.85;5.25;;;;;;;17.07;56.17;99601.59;1800299;79;21180;-68
2021/04/22 00:32:02;;;;;;;5.85;5.25;;;;;;;17.07;56.15;99604.77;1809104;79;21160;-68
2021/04/22 00:34:30;;;;;;;5.58;4.90;;;;;;;17.06;56.17;99613.34;1785252;79;21374;-67
2021/04/22 00:36:57;;;;;;;5.50;5.00;;;;;;;17.05;56.14;99606.31;1805648;79;21704;-69
2021/04/22 00:39:25;;;;;;;5.83;5.22;;;;;;;17.04;56.15;99608.71;1809797;79;21506;-67
2021/04/22 00:41:54;;;;;;;6.30;5.17;;;;;;;17.05;56.15;99613.55;1779883;77;21154;-68
2021/04/22 00:44:21;;;;;;;5.83;5.20;;;;;;;17.04;56.13;99601.19;1784542;79;21173;-67
2021/04/22 00:46:51;;;;;;;6.40;5.35;;;;;;;17.02;56.12;99601.39;1773107;78;22058;-68
2021/04/22 00:49:18;;;;;;;5.25;4.65;;;;;;;17.01;56.12;99609.12;1729953;79;21139;-68
2021/04/22 00:51:47;;;;;;;5.53;4.75;;;;;;;17.01;56.17;99613.16;1783208;79;21193;-68
2021/04/22 00:54:14;;;;;;;6.30;5.17;;;;;;;17.00;56.15;99616.89;1780385;78;21592;-69
2021/04/22 00:56:42;;;;;;;5.87;5.00;;;;;;;16.99;56.12;99623.27;1777390;79;21558;-68
2021/04/22 00:59:09;;;;;;;7.58;4.83;;;;;;;16.98;56.16;99621.64;1784925;77;21455;-68
2021/04/22 01:01:37;;;;;;;5.75;4.65;;;;;;;16.98;56.15;99622.98;1771917;79;21163;-68
2021/04/22 01:04:06;;;;;;;5.75;4.58;;;;;;;16.97;56.15;99622.66;1785407;80;21175;-67
2021/04/22 01:06:33;;;;;;;5.65;4.80;;;;;;;16.96;56.13;99621.03;1780919;79;21163;-67
2021/04/22 01:09:03;;;;;;;5.75;4.83;;;;;;;16.97;56.16;99620.51;1777113;79;21135;-67
2021/04/22 01:11:31;;;;;;;6.15;4.92;;;;;;;16.95;56.15;99628.77;1774975;79;22629;-67
2021/04/22 01:13:59;;;;;;;7.17;5.15;;;;;;;16.95;56.17;99628.77;1818035;77;21120;-68
2021/04/22 01:16:26;;;;;;;5.25;4.72;;;;;;;16.94;56.14;99624.95;1800006;78;21132;-68
2021/04/22 01:18:54;;;;;;;5.58;5.03;;;;;;;16.93;56.14;99626.81;1773553;78;21167;-68
2021/04/22 01:21:25;;;;;;;5.37;4.80;;;;;;;16.93;56.13;99628.68;1783344;78;21151;-68
2021/04/22 01:23:54;;;;;;;6.10;5.22;;;;;;;16.92;56.13;99631.05;1844250;77;21315;-68
2021/04/22 01:26:25;;;;;;;5.33;4.67;;;;;;;16.89;56.15;99627.75;1821420;76;21191;-68
2021/04/22 01:28:52;;;;;;;5.08;4.58;;;;;;;16.90;56.14;99631.25;1826552;76;21168;-67
2021/04/22 01:31:20;;;;;;;5.58;4.97;;;;;;;16.88;56.15;99635.52;1770410;79;21632;-67
2021/04/22 01:33:48;;;;;;;6.17;5.22;;;;;;;16.87;56.12;99632.51;1775276;79;21128;-67
2021/04/22 01:36:17;;;;;;;5.12;4.62;;;;;;;16.86;56.12;99627.34;1769936;79;21431;-67
2021/04/22 01:38:45;;;;;;;5.50;4.95;;;;;;;16.86;56.13;99626.86;1759179;79;21175;-67
2021/04/22 01:41:14;;;;;;;5.40;4.90;;;;;;;16.86;56.12;99628.20;1805595;79;21176;-67
2021/04/22 01:43:43;;;;;;;7.58;5.28;;;;;;;16.85;56.17;99631.08;1800426;78;21167;-68
2021/04/22 01:46:11;;;;;;;5.58;4.47;;;;;;;16.84;56.14;99636.13;1788140;78;21112;-70
2021/04/22 01:48:40;;;;;;;5.42;4.53;;;;;;;16.83;56.14;99630.47;1789015;79;22162;-69
2021/04/22 01:51:08;;;;;;;5.65;4.65;;;;;;;16.83;56.14;99634.50;1798327;78;21144;-68
2021/04/22 01:53:36;;;;;;;5.58;4.50;;;;;;;16.81;56.17;99625.80;1794951;78;21164;-67
2021/04/22 01:56:06;;;;;;;5.15;4.65;;;;;;;16.81;56.20;99625.80;1788159;78;21640;-66
2021/04/22 01:58:33;;;;;;;5.37;4.65;;;;;;;16.79;56.17;99620.64;1834964;76;21098;-66
2021/04/22 02:01:01;;;;;;;5.05;4.55;;;;;;;16.79;56.18;99623.86;1831221;76;22353;-67
2021/04/22 02:03:32;;;;;;;5.25;4.75;;;;;;;16.79;56.18;99623.86;1838647;77;21167;-67
2021/04/22 02:06:08;;;;;;;5.83;5.05;;;;;;;16.77;56.17;99625.92;1837001;76;21165;-67
2021/04/22 02:08:36;;;;;;;5.53;4.78;;;;;;;16.76;56.20;99628.29;1823935;76;21176;-67
2021/04/22 02:11:05;;;;;;;4.95;4.45;;;;;;;16.75;56.17;99626.13;1786444;78;21158;-68
2021/04/22 02:13:33;;;;;;;5.45;4.95;;;;;;;16.73;56.18;99621.50;1811989;78;21188;-68
2021/04/22 02:16:00;;;;;;;5.30;4.80;;;;;;;16.74;56.22;99623.66;1788001;79;21186;-68
2021/04/22 02:18:28;;;;;;;5.50;4.80;;;;;;;16.73;56.20;99627.36;1807376;78;21156;-67
2021/04/22 02:20:55;;;;;;;7.05;5.17;;;;;;;16.73;56.21;99628.70;1820811;78;22033;-67
2021/04/22 02:23:26;;;;;;;5.33;4.72;;;;;;;16.71;56.21;99627.59;1821631;78;21136;-67
2021/04/22 02:25:53;;;;;;;6.15;4.72;;;;;;;16.71;56.21;99629.75;1812754;77;21368;-68
2021/04/22 02:28:21;;;;;;;4.95;4.35;;;;;;;16.70;56.20;99631.30;1812529;78;21236;-67
2021/04/22 02:30:48;;;;;;;6.05;4.87;;;;;;;16.70;56.25;99633.98;1794495;79;21183;-68
2021/04/22 02:33:18;;;;;;;6.22;4.65;;;;;;;16.68;56.23;99627.48;1793924;78;21124;-68
2021/04/22 02:35:48;;;;;;;6.20;5.45;;;;;;;16.68;56.23;99630.16;1811930;77;21122;-68
2021/04/22 02:38:17;;;;;;;5.33;4.58;;;;;;;16.67;56.23;99632.55;1812146;77;21392;-68
2021/04/22 02:40:46;;;;;;;5.25;4.70;;;;;;;16.66;56.23;99624.71;1807984;77;21136;-69
2021/04/22 02:43:16;;;;;;;5.62;4.90;;;;;;;16.66;56.25;99636.78;1764368;79;21191;-68
2021/04/22 02:45:50;;;;;;;6.65;5.60;;;;;;;16.65;56.25;99635.96;1813188;77;21151;-68
2021/04/22 02:48:18;;;;;;;5.85;4.95;;;;;;;16.64;56.27;99634.30;1802833;78;21148;-67
2021/04/22 02:50:50;;;;;;;5.55;4.87;;;;;;;16.63;56.26;99631.82;1806971;77;21379;-68
2021/04/22 02:53:17;;;;;;;5.85;5.03;;;;;;;16.62;56.26;99636.89;1783269;80;21139;-68
2021/04/22 02:55:45;;;;;;;7.00;5.37;;;;;;;16.61;56.28;99640.59;1806891;77;21188;-69
2021/04/22 02:58:15;;;;;;;5.25;4.53;;;;;;;16.60;56.29;99638.97;1814814;77;21124;-68
2021/04/22 03:00:44;;;;;;;6.95;4.85;;;;;;;16.60;56.28;99640.30;1785482;79;21130;-68
2021/04/22 03:03:12;;;;;;;6.22;5.00;;;;;;;16.60;56.31;99640.30;1806908;78;21361;-68
2021/04/22 03:05:39;;;;;;;5.58;4.58;;;;;;;16.59;56.29;99641.33;1806187;78;21108;-67
2021/04/22 03:08:07;;;;;;;5.42;4.92;;;;;;;16.57;56.27;99637.50;1797521;78;21095;-68
2021/04/22 03:10:35;;;;;;;6.15;5.53;;;;;;;16.57;56.30;99640.71;1794307;78;21183;-68
2021/04/22 03:13:03;;;;;;;5.75;5.15;;;;;;;16.57;56.34;99648.76;1795835;77;21168;-68
2021/04/22 03:15:33;;;;;;;4.87;4.28;;;;;;;16.55;56.34;99651.64;1761829;79;21252;-69
2021/04/22 03:18:01;;;;;;;5.92;4.62;;;;;;;16.55;56.33;99651.64;1798361;78;21186;-69
2021/04/22 03:20:29;;;;;;;5.17;4.65;;;;;;;16.54;56.33;99650.53;1758726;79;21115;-69
2021/04/22 03:22:57;;;;;;;5.70;5.20;;;;;;;16.54;56.36;99654.03;1796321;79;21121;-68
2021/04/22 03:25:26;;;;;;;5.45;4.95;;;;;;;16.52;56.36;99649.40;1781291;79;21101;-68
2021/04/22 03:27:53;;;;;;;5.25;4.75;;;;;;;16.53;56.33;99659.08;1772198;79;21373;-68
2021/04/22 03:30:25;;;;;;;5.45;4.95;;;;;;;16.51;56.31;99653.94;1775455;79;21627;-68
2021/04/22 03:32:52;;;;;;;5.37;4.78;;;;;;;16.51;56.36;99661.98;1799480;78;21102;-69
2021/04/22 03:35:20;;;;;;;6.37;4.72;;;;;;;16.51;56.38;99654.44;1745468;80;21179;-69
2021/04/22 03:37:48;;;;;;;5.70;4.58;;;;;;;16.49;56.38;99655.16;1798786;78;21604;-68
2021/04/22 03:40:18;;;;;;;5.25;4.75;;;;;;;16.49;56.38;99654.64;1769836;79;21204;-69
2021/04/22 03:42:46;;;;;;;5.62;5.10;;;;;;;16.50;56.38;99664.34;1786500;78;21556;-68
2021/04/22 03:45:14;;;;;;;5.83;4.85;;;;;;;16.49;56.42;99667.23;1776204;78;21164;-68
2021/04/22 03:47:42;;;;;;;5.35;4.85;;;;;;;16.48;56.43;99670.96;1782046;80;21587;-69
2021/04/22 03:50:13;;;;;;;5.40;4.90;;;;;;;16.48;56.45;99666.94;1769587;79;21644;-67
2021/04/22 03:52:41;;;;;;;5.75;4.70;;;;;;;16.48;56.40;99669.62;1773752;79;21366;-67
2021/04/22 03:55:10;;;;;;;5.65;5.05;;;;;;;16.48;56.41;99666.94;1801078;79;21145;-67
2021/04/22 03:57:37;;;;;;;5.10;4.60;;;;;;;16.49;56.46;99670.73;1773075;79;21128;-68
2021/04/22 04:00:08;;;;;;;5.75;5.15;;;;;;;16.48;56.45;99683.03;1771181;79;21304;-68
2021/04/22 04:02:36;;;;;;;4.90;4.37;;;;;;;16.49;56.46;99686.00;1764543;79;21176;-68
2021/04/22 04:05:11;;;;;;;5.50;4.95;;;;;;;16.49;56.45;99688.16;1778031;79;21372;-68
2021/04/22 04:07:39;;;;;;;5.80;5.22;;;;;;;16.50;56.42;99685.80;1751095;79;21203;-68
2021/04/22 04:10:07;;;;;;;5.75;4.58;;;;;;;16.51;56.43;99694.66;1807351;78;21152;-68
2021/04/22 04:12:35;;;;;;;5.58;5.08;;;;;;;16.53;56.42;99693.12;1772963;79;21602;-67
2021/04/22 04:15:04;;;;;;;5.33;4.83;;;;;;;16.55;56.38;99693.73;1848155;77;21111;-68
2021/04/22 04:17:31;;;;;;;5.53;5.03;;;;;;;16.56;56.38;99698.08;1831305;76;21685;-68
2021/04/22 04:19:59;;;;;;;5.70;5.20;;;;;;;16.56;56.39;99701.58;1846023;76;21132;-68
2021/04/22 04:22:26;;;;;;;6.87;4.35;;;;;;;16.56;56.35;99697.55;1827690;76;21144;-66
2021/04/22 04:24:54;;;;;;;5.55;4.62;;;;;;;16.58;56.36;99706.21;1776074;79;21183;-68
2021/04/22 04:27:22;;;;;;;4.95;4.08;;;;;;;16.59;56.32;99705.20;1844406;77;21580;-68
2021/04/22 04:29:49;;;;;;;4.80;4.20;;;;;;;16.61;56.27;99721.05;1841833;76;21646;-68
2021/04/22 04:32:17;;;;;;;6.70;5.30;;;;;;;16.62;56.23;99720.85;1834204;76;21119;-66
2021/04/22 04:34:44;;;;;;;6.08;4.92;;;;;;;16.64;56.24;99714.76;1811461;77;21132;-67
2021/04/22 04:37:12;;;;;;;5.72;4.60;;;;;;;16.65;56.21;99719.11;1846528;77;21159;-67
2021/04/22 04:39:40;;;;;;;5.95;4.60;;;;;;;16.66;56.15;99726.63;1847585;76;21131;-67
2021/04/22 04:42:07;;;;;;;6.75;4.58;;;;;;;16.69;56.21;99723.55;1849877;77;21192;-67
2021/04/22 04:44:35;;;;;;;6.28;5.08;;;;;;;16.70;56.30;99723.31;1850719;77;21159;-68
2021/04/22 04:47:03;;;;;;;5.97;5.37;;;;;;;16.70;56.29;99721.97;1842664;76;21545;-69
2021/04/22 04:49:30;;;;;;;5.05;4.28;;;;;;;16.73;56.22;99724.77;1853214;76;21150;-68
2021/04/22 04:51:58;;;;;;;6.28;4.72;;;;;;;16.75;56.17;99717.86;1830355;76;21169;-70
2021/04/22 04:54:25;;;;;;;5.90;5.17;;;;;;;16.76;56.11;99723.52;1841116;76;22254;-69
2021/04/22 04:56:52;;;;;;;5.50;4.90;;;;;;;16.78;56.06;99730.84;1839353;76;21115;-68
2021/04/22 04:59:19;;;;;;;5.30;4.53;;;;;;;16.80;56.07;99725.56;1834044;76;21100;-69
2021/04/22 05:01:47;;;;;;;5.67;5.10;;;;;;;16.82;56.06;99730.75;1835557;76;21172;-70
2021/04/22 05:04:16;;;;;;;5.83;5.08;;;;;;;16.84;56.03;99730.03;1840046;76;21159;-69
2021/04/22 05:06:43;;;;;;;5.70;4.55;;;;;;;16.85;56.05;99730.34;1845797;76;21169;-69
2021/04/22 05:09:11;;;;;;;5.12;4.30;;;;;;;16.86;56.04;99734.17;1775653;79;21171;-70
2021/04/22 05:11:39;;;;;;;5.17;4.65;;;;;;;16.88;55.96;99730.76;1843865;76;21084;-67
2021/04/22 05:14:07;;;;;;;5.15;4.40;;;;;;;16.90;55.93;99733.20;1827521;76;22134;-69
2021/04/22 05:16:36;;;;;;;5.30;4.80;;;;;;;16.92;55.92;99736.53;1834295;76;21137;-68
2021/04/22 05:19:05;;;;;;;5.80;4.70;;;;;;;16.94;55.90;99732.28;1839191;76;21437;-68
2021/04/22 05:21:32;;;;;;;5.20;4.70;;;;;;;16.95;55.85;99741.99;1804785;78;21145;-68
2021/04/22 05:24:00;;;;;;;4.42;4.03;;;;;;;16.96;55.84;99737.77;1844826;76;21180;-67
2021/04/22 05:26:27;;;;;;;5.10;4.60;;;;;;;16.98;55.83;99738.87;1836768;76;21182;-68
2021/04/22 05:28:55;;;;;;;4.90;4.42;;;;;;;17.01;55.80;99742.48;1771739;79;21108;-68
2021/04/22 05:31:24;;;;;;;5.67;4.45;;;;;;;17.03;55.77;99746.60;1820663;78;22321;-68
2021/04/22 05:33:52;;;;;;;4.67;4.20;;;;;;;17.06;55.71;99740.01;1838709;78;21182;-68
2021/04/22 05:36:20;;;;;;;4.62;4.12;;;;;;;17.08;55.67;99741.44;1775906;79;21164;-68
2021/04/22 05:38:47;;;;;;;5.25;4.75;;;;;;;17.11;55.63;99734.81;1744291;80;21179;-67
2021/04/22 05:41:16;;;;;;;4.92;4.42;;;;;;;17.13;55.59;99736.77;1815485;78;21155;-68
2021/04/22 05:43:43;;;;;;;5.22;4.60;;;;;;;17.16;55.57;99738.23;1776194;78;23520;-67
2021/04/22 05:46:11;;;;;;;4.90;4.35;;;;;;;17.17;55.59;99736.68;1758823;78;21140;-69
2021/04/22 05:48:38;;;;;;;4.90;4.40;;;;;;;17.20;55.53;99738.92;1758884;78;21131;-68
2021/04/22 05:51:07;;;;;;;4.60;4.20;;;;;;;17.21;55.51;99734.37;1759066;78;21174;-68
2021/04/22 05:53:35;;;;;;;5.42;4.92;;;;;;;17.22;55.46;99736.03;1783211;78;21140;-68
2021/04/22 05:56:03;;;;;;;4.97;4.37;;;;;;;17.23;55.44;99742.53;1769803;78;21572;-68
2021/04/22 05:58:31;;;;;;;5.22;4.72;;;;;;;17.24;55.44;99736.11;1774640;78;21671;-69
2021/04/22 06:00:58;;;;;;;5.62;5.05;;;;;;;17.26;55.40;99735.91;1765792;78;21153;-68
2021/04/22 06:03:26;;;;;;;5.40;4.60;;;;;;;17.27;55.40;99738.39;1793315;79;21182;-68
2021/04/22 06:05:54;;;;;;;4.90;4.40;;;;;;;17.29;55.36;99742.21;1764788;78;21182;-69
2021/04/22 06:08:21;;;;;;;5.65;4.67;;;;;;;17.33;55.30;99741.27;1759215;80;21387;-68
2021/04/22 06:10:49;;;;;;;5.55;4.90;;;;;;;17.35;55.34;99735.17;1786225;78;21973;-70
2021/04/22 06:13:16;;;;;;;5.28;4.70;;;;;;;17.38;55.34;99740.09;1786724;80;21189;-69
2021/04/22 06:15:44;;;;;;;5.28;4.78;;;;;;;17.42;55.35;99745.34;1763082;79;21182;-68
2021/04/22 06:18:12;;;;;;;5.25;4.67;;;;;;;17.44;55.37;99745.45;1783365;80;21452;-68
2021/04/22 06:20:39;;;;;;;5.97;4.62;;;;;;;17.48;55.25;99750.70;1784085;80;22248;-67
2021/04/22 06:23:08;;;;;;;5.50;4.87;;;;;;;17.51;55.21;99740.05;1758226;80;21188;-68
2021/04/22 06:25:36;;;;;;;6.40;4.67;;;;;;;17.54;55.20;99745.50;1783683;80;21137;-68
2021/04/22 06:28:05;;;;;;;5.08;4.45;;;;;;;17.56;55.19;99740.23;1783903;80;21141;-67
2021/04/22 06:30:32;;;;;;;5.67;4.47;;;;;;;17.59;55.24;99743.82;1783780;80;21591;-67
2021/04/22 06:33:01;;;;;;;4.92;4.12;;;;;;;17.61;55.21;99743.62;1783650;80;21795;-67
2021/04/22 06:35:28;;;;;;;5.03;4.33;;;;;;;17.64;55.15;99748.57;1783576;80;21176;-69
2021/04/22 06:37:55;;;;;;;5.53;4.60;;;;;;;17.67;55.11;99751.66;1783541;80;21167;-68
2021/04/22 06:40:23;;;;;;;5.03;4.53;;;;;;;17.69;55.17;99753.61;1783527;80;21172;-68
2021/04/22 06:42:53;;;;;;;5.42;4.55;;;;;;;17.71;55.09;99752.03;1763753;80;21164;-68
2021/04/22 06:45:21;;;;;;;5.17;4.55;;;;;;;17.75;55.18;99750.59;1776215;80;21791;-67
2021/04/22 06:47:48;;;;;;;6.20;4.53;;;;;;;17.79;55.28;99757.17;1772198;80;21608;-69
2021/04/22 06:50:20;;;;;;;5.67;5.03;;;;;;;17.82;55.27;99758.59;1773923;80;21169;-68
2021/04/22 06:52:47;;;;;;;4.95;4.45;;;;;;;17.87;55.32;99755.60;1783867;80;21180;-68
2021/04/22 06:55:20;;;;;;;4.78;4.20;;;;;;;17.92;55.32;99759.50;1784010;80;21153;-67
2021/04/22 06:57:49;;;;;;;4.83;4.33;;;;;;;17.95;55.25;99772.52;1766155;80;21380;-68
2021/04/22 07:00:22;;;;;;;5.35;4.45;;;;;;;17.97;55.18;99763.72;1771356;80;21129;-67
2021/04/22 07:02:50;;;;;;;5.33;4.43;;;;;;;17.99;55.09;99760.30;1783919;80;21187;-68
2021/04/22 07:05:17;;;;;;;6.62;5.22;;;;;;;18.01;55.06;99764.94;1783643;80;21514;-68
2021/04/22 07:07:45;;;;;;;6.03;4.62;;;;;;;18.02;55.02;99769.25;1783890;80;21137;-68
2021/04/22 07:10:15;;;;;;;4.83;4.30;;;;;;;18.02;55.16;99766.06;1768444;80;21193;-67
2021/04/22 07:12:44;;;;;;;5.53;4.55;;;;;;;18.04;55.12;99770.70;1753342;78;21214;-68
2021/04/22 07:15:13;;;;;;;4.67;4.15;;;;;;;18.06;55.05;99761.09;1758886;78;21179;-70
2021/04/22 07:17:43;;;;;;;5.55;4.45;;;;;;;18.09;54.96;99764.67;1787875;78;21153;-70
2021/04/22 07:20:16;;;;;;;5.20;4.70;;;;;;;18.10;54.81;99764.98;1781557;78;21191;-69
2021/04/22 07:22:45;;;;;;;6.60;4.70;;;;;;;18.14;54.83;99763.51;1757585;78;22747;-69
2021/04/22 07:25:13;;;;;;;5.22;4.67;;;;;;;18.18;54.70;99771.44;1759087;78;21632;-69
2021/04/22 07:27:42;;;;;;;4.65;4.25;;;;;;;18.22;54.54;99774.52;1784366;78;21617;-69
2021/04/22 07:30:13;;;;;;;7.97;4.50;;;;;;;18.25;54.50;99769.54;1726649;81;21559;-69
2021/04/22 07:32:41;;;;;;;4.53;4.12;;;;;;;18.27;54.54;99770.14;1782739;78;21192;-69
2021/04/22 07:35:09;;;;;;;5.87;5.10;;;;;;;18.31;54.52;99768.34;1794564;79;21291;-68
2021/04/22 07:37:38;;;;;;;5.00;4.53;;;;;;;18.33;54.51;99764.91;1772316;78;21135;-69
2021/04/22 07:40:08;;;;;;;6.20;4.08;;;;;;;18.35;54.49;99749.38;1765875;78;21483;-70
2021/04/22 07:42:37;;;;;;;6.28;4.55;;;;;;;18.36;54.48;99761.27;1782516;79;21182;-71
2021/04/22 07:45:10;;;;;;;5.30;4.80;;;;;;;18.40;54.50;99756.28;1782880;78;21193;-67
2021/04/22 07:47:37;;;;;;;;;;;;;;;18.42;54.53;99754.20;1783718;78;21199;-69
2021/04/22 07:50:08;;;;;;;4.95;4.08;;;;;;;18.43;54.42;99759.36;1758778;78;20276;-69
2021/04/22 07:52:36;;;;;;;5.62;4.00;;;;;;;18.39;54.59;99766.23;1793975;78;21211;-69
2021/04/22 07:55:17;;;;;;;5.67;4.40;;;;;;;18.42;54.58;99759.58;1775466;78;21548;-68
2021/04/22 07:57:44;;;;;;;4.62;4.22;;;;;;;18.45;54.55;99764.53;1758833;78;21167;-68
2021/04/22 08:00:14;;;;;;;4.45;4.05;;;;;;;18.49;54.54;99752.81;1758757;78;21373;-70
2021/04/22 08:02:42;;;;;;;5.28;3.98;;;;;;;18.51;54.46;99763.64;1842702;76;21180;-69
2021/04/22 08:05:12;;;;;;;7.05;4.45;;;;;;;18.55;54.39;99759.47;1845982;76;21154;-69
2021/04/22 08:07:41;;;;;;;4.53;4.08;;;;;;;18.58;54.41;99769.80;1772463;79;21168;-70
2021/04/22 08:10:11;;;;;;;4.67;4.22;;;;;;;18.60;54.34;99755.61;1796987;78;21108;-71
2021/04/22 08:12:40;;;;;;;5.67;4.08;;;;;;;18.64;54.35;99760.84;1757507;80;21123;-70
2021/04/22 08:15:10;;;;;;;5.08;3.83;;;;;;;18.67;54.33;99773.03;1784212;79;21196;-70
2021/04/22 08:17:39;;;;;;;4.67;4.28;;;;;;;18.70;54.25;99756.45;1759239;80;21249;-70
2021/04/22 08:20:12;;;;;;;4.97;4.37;;;;;;;18.73;54.20;99761.91;1841049;77;21136;-69
2021/04/22 08:22:40;;;;;;;4.97;4.37;;;;;;;18.76;54.23;99765.52;1819571;76;21164;-69
2021/04/22 08:25:10;;;;;;;4.72;4.20;;;;;;;18.79;54.21;99761.83;1853243;76;23672;-69
2021/04/22 08:27:38;;;;;;;5.30;3.95;;;;;;;18.83;54.16;99756.86;1853189;76;21620;-71
2021/04/22 08:30:07;;;;;;;4.22;3.83;;;;;;;18.86;54.11;99747.83;1853186;76;21154;-70
2021/04/22 08:32:35;;;;;;;4.33;3.92;;;;;;;18.91;54.11;99773.25;1833098;76;21136;-71
2021/04/22 08:35:04;;;;;;;4.65;3.90;;;;;;;18.93;54.10;99739.70;1843240;76;21096;-70
2021/04/22 08:37:36;;;;;;;4.83;3.70;;;;;;;18.97;54.01;99764.31;1837501;77;21322;-70
2021/04/22 08:40:09;;;;;;;4.45;4.05;;;;;;;19.00;53.92;99744.47;1829698;76;21135;-71
2021/04/22 08:42:37;;;;;;;;;;;;;;;19.03;53.88;99748.08;1844338;76;21142;-69
2021/04/22 08:45:08;;;;;;;4.42;4.03;;;;;;;19.06;53.91;99737.38;1852951;76;20966;-70
2021/04/22 08:47:36;;;;;;;5.00;3.70;;;;;;;19.02;54.03;99742.37;1834571;76;21113;-70
2021/04/22 08:50:05;;;;;;;3.92;3.42;;;;;;;19.05;53.87;99736.56;1824545;75;21211;-70
2021/04/22 08:52:34;;;;;;;5.25;4.35;;;;;;;19.12;53.84;99739.70;1843320;76;21195;-69
2021/04/22 08:55:03;;;;;;;5.25;3.77;;;;;;;19.17;53.66;99734.47;1821675;76;21442;-68
2021/04/22 08:57:31;;;;;;;4.60;4.05;;;;;;;19.21;53.71;99731.63;1830920;76;21230;-68
2021/04/22 08:59:59;;;;;;;7.53;3.90;;;;;;;19.27;53.67;99741.48;1779900;79;21152;-68
2021/04/22 09:02:26;;;;;;;4.55;3.87;;;;;;;19.31;53.61;99737.83;1832214;76;21194;-72
2021/04/22 09:04:54;;;;;;;3.98;3.62;;;;;;;19.36;53.54;99718.59;1837030;76;21179;-70
2021/04/22 09:07:22;;;;;;;4.22;3.83;;;;;;;19.41;53.41;99724.64;1843095;75;21615;-69
2021/04/22 09:09:51;;;;;;;4.15;3.75;;;;;;;19.46;53.34;99738.27;1822181;76;21160;-68
2021/04/22 09:12:20;;;;;;;4.03;3.52;;;;;;;19.51;53.32;99730.33;1825138;76;21155;-68
2021/04/22 09:14:56;;;;;;;5.10;3.98;;;;;;;19.58;53.29;99736.44;1833929;76;21407;-69
2021/04/22 09:17:25;;;;;;;5.33;3.75;;;;;;;19.62;53.31;99736.31;1810080;77;21190;-69
2021/04/22 09:19:53;;;;;;;4.17;3.72;;;;;;;19.66;53.41;99721.83;1832435;77;21124;-69
2021/04/22 09:22:40;;;;;;;3.90;3.58;;;;;;;19.68;53.30;99714.87;1808943;77;21150;-69
2021/04/22 09:25:16;;;;;;;4.45;3.60;;;;;;;19.70;53.25;99726.23;1834500;77;21399;-69
2021/04/22 09:29:08;;;;;;;4.03;3.65;;;;;;;19.75;53.06;99719.68;1808406;76;22626;-68
2021/04/22 09:31:35;;;;;;;4.30;3.90;;;;;;;19.69;53.15;99721.38;1774689;77;21582;-69
2021/04/22 09:34:13;;;;;;;3.90;3.55;;;;;;;19.74;53.02;99712.13;1772293;77;21337;-67
2021/04/22 09:36:48;;;;;;;4.37;3.98;;;;;;;19.77;53.30;99706.27;1789404;79;21659;-68
2021/04/22 09:39:24;;;;;;;4.50;3.98;;;;;;;19.80;53.17;99707.16;1787357;79;21131;-68
2021/04/22 09:41:57;;;;;;;4.87;4.37;;;;;;;19.86;53.02;99718.05;1803497;77;21148;-68
2021/04/22 09:44:25;;;;;;;3.70;3.37;;;;;;;19.89;53.00;99712.22;1781990;79;21594;-68
2021/04/22 09:47:09;;;;;;;4.10;3.60;;;;;;;19.93;53.45;99705.31;1786120;79;21326;-68
2021/04/22 09:50:00;;;;;;;4.92;3.52;;;;;;;19.97;53.30;99703.80;1790633;79;20988;-68
2021/04/22 09:52:38;;;;;;;6.05;3.67;;;;;;;19.98;53.15;99715.70;1784560;79;21138;-69
2021/04/22 09:55:09;;;;;;;3.55;3.25;;;;;;;19.98;53.00;99700.88;1784108;79;21166;-67
2021/04/22 09:57:36;;;;;;;3.52;3.22;;;;;;;19.98;52.89;99692.78;1772905;77;21214;-68
2021/04/22 10:00:08;;;;;;;3.70;3.27;;;;;;;19.98;52.78;99701.41;1777987;79;22801;-67
2021/04/22 10:02:53;;;;;;;4.90;3.35;;;;;;;19.98;52.77;99696.02;1807186;79;21146;-68
2021/04/22 10:05:32;;;;;;;3.80;3.50;;;;;;;19.98;52.78;99702.76;1792095;79;21185;-69
2021/04/22 10:08:13;;;;;;;3.72;3.30;;;;;;;19.97;52.85;99703.30;1787158;76;21170;-69
2021/04/22 10:10:59;;;;;;;3.87;3.47;;;;;;;19.96;52.95;99703.52;1792224;78;21200;-71
2021/04/22 10:13:28;;;;;;;4.25;3.50;;;;;;;19.95;52.91;99703.20;1772383;77;21378;-70
2021/04/22 10:16:00;;;;;;;3.60;3.30;;;;;;;19.93;52.98;99694.53;1773873;79;21455;-69
2021/04/22 10:18:38;;;;;;;3.67;3.37;;;;;;;19.91;53.07;99693.41;1773379;79;21182;-73
2021/04/22 10:21:05;;;;;;;3.92;3.60;;;;;;;19.93;53.04;99691.83;1797787;79;21197;-68
2021/04/22 10:23:33;;;;;;;3.83;3.42;;;;;;;19.89;53.03;99700.91;1792034;77;21150;-70
2021/04/22 10:26:01;;;;;;;4.10;3.70;;;;;;;19.88;53.11;99705.20;1789003;79;21181;-72
2021/04/22 10:28:29;;;;;;;3.45;3.15;;;;;;;19.86;53.16;99731.03;1776255;78;21601;-71
2021/04/22 10:30:57;;;;;;;3.67;3.35;;;;;;;19.84;53.19;99746.08;1764101;79;21181;-73
2021/04/22 10:33:25;;;;;;;3.87;3.47;;;;;;;19.83;53.18;99723.39;1746828;81;21193;-70
2021/04/22 10:35:54;;;;;;;3.45;3.15;;;;;;;19.82;53.08;99726.63;1747476;81;21138;-70
2021/04/22 10:38:22;;;;;;;3.58;3.25;;;;;;;19.83;52.78;99712.08;1741838;81;21231;-70
2021/04/22 10:40:52;;;;;;;3.70;3.12;;;;;;;19.86;52.67;99709.97;1720939;81;21178;-70
2021/04/22 10:43:26;;;;;;;3.55;3.12;;;;;;;19.90;52.48;99703.09;1740452;80;21146;-68
2021/04/22 10:45:54;;;;;;;;;;;;;;;19.95;52.33;99699.16;1765164;79;21194;-72
2021/04/22 10:48:22;;;;;;;3.20;2.90;;;;;;;19.98;52.43;99698.17;1772701;80;20255;-72
2021/04/22 10:50:53;;;;;;;3.47;3.17;;;;;;;19.95;52.72;99703.20;1761675;79;21426;-71
2021/04/22 10:53:37;;;;;;;5.12;3.55;;;;;;;19.97;52.79;99730.75;1770362;80;21145;-72
2021/04/22 10:56:14;;;;;;;4.10;3.70;;;;;;;19.99;52.74;99720.56;1738973;80;21202;-69
2021/04/22 10:59:16;;;;;;;3.77;2.95;;;;;;;19.98;52.67;99714.36;1725299;81;21242;-69
2021/04/22 11:03:01;;;;;;;3.95;3.55;;;;;;;19.99;52.54;99700.34;1647840;85;21229;-70
2021/04/22 11:05:49;;;;;;;3.37;3.08;;;;;;;19.99;52.28;99696.30;1707598;83;21201;-71
2021/04/22 11:09:05;;;;;;;3.10;2.80;;;;;;;20.10;52.29;99702.25;1847312;76;27757;-72
2021/04/22 11:12:01;;;;;;;3.58;3.27;;;;;;;20.17;53.10;99699.45;1758087;79;26788;-68
2021/04/22 11:14:42;;;;;;;3.15;2.87;;;;;;;20.22;52.86;99702.27;1816206;78;21337;-68
2021/04/22 11:17:10;;;;;;;3.37;3.08;;;;;;;20.23;52.96;99691.25;1810817;78;21204;-68
2021/04/22 11:19:42;;;;;;;3.40;3.10;;;;;;;20.23;52.80;99693.95;1817527;78;21161;-69
2021/04/22 11:22:20;;;;;;;3.95;3.30;;;;;;;20.22;52.80;99704.45;1819667;78;21578;-68
2021/04/22 11:25:00;;;;;;;3.02;2.83;;;;;;;20.21;52.78;99703.33;1818127;78;21636;-70
2021/04/22 11:27:53;;;;;;;3.33;3.02;;;;;;;20.19;52.75;99703.56;1802948;78;21415;-71
2021/04/22 11:31:08;;;;;;;3.33;3.02;;;;;;;20.16;52.72;99709.94;1787024;78;21201;-70
2021/04/22 11:34:06;;;;;;;3.02;2.72;;;;;;;20.13;52.79;99701.80;1747475;79;23259;-70
2021/04/22 11:37:04;;;;;;;3.70;3.00;;;;;;;20.06;52.87;99701.06;1708310;82;21067;-73
2021/04/22 11:39:44;;;;;;;3.37;3.08;;;;;;;20.06;52.78;99702.95;1815615;77;24336;-68
2021/04/22 11:42:13;;;;;;;2.75;2.55;;;;;;;20.00;52.83;99692.56;1726093;81;21162;-70
2021/04/22 11:44:51;;;;;;;3.60;3.30;;;;;;;20.00;52.92;99693.91;1747523;81;21397;-69
2021/04/22 11:47:50;;;;;;;;;;;;;;;;;;;;;
2021/04/22 11:50:57;;;;;;;3.47;3.17;;;;;;;19.99;52.58;99670.68;1709874;81;21182;-72
2021/04/22 11:53:54;;;;;;;3.37;2.95;;;;;;;20.07;51.82;99668.17;1752240;81;21118;-73
2021/04/22 11:56:39;;;;;;;3.27;2.98;;;;;;;20.23;51.89;99663.46;1657170;82;21198;-72